Granite Canon, Wyoming
Current Conditions -  °F | °C
As of 2:56 AM on Thursday 23 Oct 2014 (Local Time) from KFEW Reporting Station
Clear Clear  
Wind Chill: 28°   Ceiling: Unl
Heat Index: 34°   Visibility: 10mi
Dew Point: 29°   Wind: 6mph
Humidity: 84%   Direction: 310°NW
Pressure: 30.14"   Gusts: NA
Location:  41.1°N, 105.14°W
Report Text: KFEW 230856Z AUTO 31005KT 10SM CLR 01/M01 A3014 RMK AO2 SLP173 T00091015 55001 $
Loading
Personal Weather Stations






























Interactive Weather Map New forecast layout! Learn more

10-Day Weather Forecast

Advertisements
Track Severe Weather on mobile